Time;durP1;ratioP1;P1;durP2;ratioP2;P2;SDS_P1;SDS_P2;PMS_P1;PMS_P2;Temp;Humidity;BMP_temperature;BMP_pressure;BME280_temperature;BME280_humidity;BME280_pressure;Samples;Min_cycle;Max_cycle;Signal;HPM_P1;HPM_P2
2023/04/11 00:01:52;;;;;;;2.42;1.40;;;;;;;1.62;59.92;101875.59;5044389;28;20425;-74
2023/04/11 00:04:19;;;;;;;1.88;1.27;;;;;;;1.61;60.23;101871.28;5037124;28;20560;-74
2023/04/11 00:06:48;;;;;;;3.30;1.90;;;;;;;1.58;60.17;101858.28;5041970;28;20052;-73
2023/04/11 00:09:15;;;;;;;2.80;1.75;;;;;;;1.57;59.74;101867.72;5040782;28;20923;-74
2023/04/11 00:11:42;;;;;;;1.98;1.58;;;;;;;1.56;59.89;101849.63;5039425;28;20053;-74
2023/04/11 00:14:11;;;;;;;6.65;2.90;;;;;;;1.53;60.38;101845.25;5039256;28;20060;-73
2023/04/11 00:16:38;;;;;;;1.98;1.45;;;;;;;1.52;60.54;101847.78;5045921;28;20132;-74
2023/04/11 00:19:06;;;;;;;1.98;1.45;;;;;;;1.52;59.54;101837.47;5047310;28;20128;-74
2023/04/11 00:21:34;;;;;;;3.38;1.70;;;;;;;1.51;59.83;101831.47;5049328;28;20081;-74
2023/04/11 00:24:02;;;;;;;4.00;1.60;;;;;;;1.49;60.56;101830.53;5039644;28;20076;-74
2023/04/11 00:26:29;;;;;;;2.40;1.60;;;;;;;1.50;60.28;101828.81;5049603;28;20856;-75
2023/04/11 00:28:56;;;;;;;2.47;1.45;;;;;;;1.48;60.76;101825.31;5045190;28;20544;-74
2023/04/11 00:31:23;;;;;;;2.05;1.42;;;;;;;1.43;60.46;101817.44;5046053;28;20048;-74
2023/04/11 00:33:50;;;;;;;2.85;1.80;;;;;;;1.44;61.08;101814.03;5041990;28;20445;-74
2023/04/11 00:36:17;;;;;;;2.42;1.58;;;;;;;1.41;60.94;101808.78;5047253;28;20451;-74
2023/04/11 00:38:45;;;;;;;2.60;1.45;;;;;;;1.42;60.82;101809.66;5041972;28;20052;-74
2023/04/11 00:41:13;;;;;;;2.88;1.65;;;;;;;1.40;60.48;101804.47;5044187;28;20049;-74
2023/04/11 00:43:40;;;;;;;2.20;1.50;;;;;;;1.38;60.52;101798.38;5044442;28;20052;-74
2023/04/11 00:46:09;;;;;;;2.05;1.38;;;;;;;1.38;60.23;101805.22;5045405;28;20046;-74
2023/04/11 00:48:36;;;;;;;2.53;1.90;;;;;;;1.36;60.30;101800.00;5039992;28;20556;-74
2023/04/11 00:51:03;;;;;;;2.75;1.42;;;;;;;1.35;60.66;101793.97;5040496;28;20049;-74
2023/04/11 00:53:31;;;;;;;8.82;2.13;;;;;;;1.33;61.23;101795.63;5039863;28;20420;-74
2023/04/11 00:55:59;;;;;;;4.35;1.90;;;;;;;1.33;60.65;101787.03;5039098;28;20080;-74
2023/04/11 00:58:28;;;;;;;4.25;1.75;;;;;;;1.30;60.93;101786.91;5036748;28;20140;-74
2023/04/11 01:00:55;;;;;;;2.38;1.60;;;;;;;1.22;61.15;101776.34;5042197;28;20087;-74
2023/04/11 01:03:22;;;;;;;2.83;1.58;;;;;;;1.27;60.80;101784.25;5045513;28;20501;-75
2023/04/11 01:05:52;;;;;;;3.05;1.95;;;;;;;1.25;60.85;101765.28;5044214;28;20079;-74
2023/04/11 01:08:21;;;;;;;3.22;1.58;;;;;;;1.24;61.19;101768.69;5043976;28;20074;-74
2023/04/11 01:10:48;;;;;;;3.15;2.15;;;;;;;1.22;61.06;101765.19;5043313;28;20510;-75
2023/04/11 01:13:15;;;;;;;3.47;1.80;;;;;;;1.22;60.48;101763.47;5045053;28;20052;-75
2023/04/11 01:15:43;;;;;;;3.58;2.15;;;;;;;1.19;60.94;101759.94;5044283;28;20051;-74
2023/04/11 01:18:10;;;;;;;2.38;1.67;;;;;;;1.08;61.13;101737.28;5043462;28;20398;-74
2023/04/11 01:20:38;;;;;;;6.93;2.53;;;;;;;1.21;61.15;101750.56;5042104;28;20044;-74
2023/04/11 01:23:06;;;;;;;3.40;2.10;;;;;;;1.13;61.17;101746.00;5044283;28;20053;-74
2023/04/11 01:25:34;;;;;;;3.13;1.58;;;;;;;1.19;61.47;101744.47;5041193;28;20045;-74
2023/04/11 01:28:02;;;;;;;3.65;1.60;;;;;;;1.19;61.12;101735.06;5039604;28;20060;-74
2023/04/11 01:30:28;;;;;;;5.32;1.80;;;;;;;1.18;61.15;101727.31;5041396;28;20054;-74
2023/04/11 01:32:55;;;;;;;5.30;2.45;;;;;;;1.17;61.51;101726.44;5047415;28;20055;-74
2023/04/11 01:35:22;;;;;;;2.35;1.90;;;;;;;1.17;61.50;101725.53;5044540;28;20055;-74
2023/04/11 01:37:49;;;;;;;3.22;1.83;;;;;;;1.16;61.24;101716.06;5043083;28;20052;-74
2023/04/11 01:40:20;;;;;;;2.67;2.20;;;;;;;1.14;61.33;101716.03;5044789;28;20061;-74
2023/04/11 01:42:49;;;;;;;3.25;1.52;;;;;;;1.15;61.44;101709.19;5038467;28;20077;-74
2023/04/11 01:45:16;;;;;;;3.10;2.40;;;;;;;1.13;62.23;101704.84;5039049;28;20054;-74
2023/04/11 01:47:43;;;;;;;3.00;1.88;;;;;;;1.09;61.80;101690.13;5041275;28;20058;-74
2023/04/11 01:50:10;;;;;;;3.33;1.95;;;;;;;1.12;61.63;101700.53;5044511;28;20060;-74
2023/04/11 01:52:37;;;;;;;1.92;1.60;;;;;;;1.12;61.90;101703.09;5042114;28;20061;-74
2023/04/11 01:55:05;;;;;;;3.90;2.40;;;;;;;1.07;61.88;101681.47;5043194;28;20057;-74
2023/04/11 01:57:32;;;;;;;3.85;2.88;;;;;;;1.11;62.21;101691.06;5043623;28;20045;-74
2023/04/11 02:00:00;;;;;;;2.33;1.98;;;;;;;1.10;61.94;101684.16;5041889;28;20137;-75
2023/04/11 02:02:27;;;;;;;2.88;1.75;;;;;;;1.09;61.83;101687.56;5034470;28;20056;-74
2023/04/11 02:04:54;;;;;;;3.00;1.95;;;;;;;1.08;61.86;101674.63;5043793;28;20059;-75
2023/04/11 02:07:21;;;;;;;3.97;2.85;;;;;;;1.07;61.86;101673.75;5050563;28;20051;-78
2023/04/11 02:09:48;;;;;;;2.88;2.20;;;;;;;1.05;61.56;101665.13;5037382;28;20502;-78
2023/04/11 02:12:14;;;;;;;4.40;1.73;;;;;;;1.05;62.20;101670.28;5041103;28;20405;-78
2023/04/11 02:14:43;;;;;;;3.92;2.53;;;;;;;1.03;62.17;101666.75;5041178;28;20041;-79
2023/04/11 02:17:12;;;;;;;3.00;1.73;;;;;;;1.03;61.83;101666.75;5047468;28;20060;-79
2023/04/11 02:19:41;;;;;;;3.70;1.80;;;;;;;1.03;61.84;101655.59;5043243;28;20156;-79
2023/04/11 02:22:08;;;;;;;2.28;1.48;;;;;;;1.01;62.08;101655.53;5048295;28;20049;-79
2023/04/11 02:24:35;;;;;;;3.85;1.52;;;;;;;1.01;61.77;101658.09;5042483;28;20482;-79
2023/04/11 02:27:03;;;;;;;3.28;1.92;;;;;;;1.01;62.38;101654.66;5043607;28;20073;-79
2023/04/11 02:29:30;;;;;;;3.38;1.67;;;;;;;1.00;61.93;101656.38;5048013;28;20080;-79
2023/04/11 02:31:57;;;;;;;2.47;1.70;;;;;;;1.01;62.47;101657.25;5046535;28;20132;-78
2023/04/11 02:34:26;;;;;;;1.73;1.23;;;;;;;0.99;62.01;101658.88;5049654;28;20045;-79
2023/04/11 02:36:53;;;;;;;5.53;1.73;;;;;;;0.96;62.30;101646.78;5043500;28;20045;-79
2023/04/11 02:39:22;;;;;;;2.97;1.80;;;;;;;0.96;61.78;101644.19;5045451;28;20112;-78
2023/04/11 02:41:49;;;;;;;2.50;1.55;;;;;;;0.87;62.29;101629.31;5039844;28;20055;-78
2023/04/11 02:44:18;;;;;;;4.47;2.72;;;;;;;0.92;62.17;101629.50;5046809;28;20052;-79
2023/04/11 02:46:45;;;;;;;5.65;1.63;;;;;;;0.93;61.94;101627.78;5047519;28;20041;-79
2023/04/11 02:49:12;;;;;;;4.50;2.05;;;;;;;0.91;61.86;101627.72;5036087;28;20136;-79
2023/04/11 02:51:40;;;;;;;3.90;1.85;;;;;;;0.88;62.70;101617.34;5041227;28;20049;-79
2023/04/11 02:54:07;;;;;;;4.57;2.25;;;;;;;0.89;62.56;101613.97;5046398;28;20049;-79
2023/04/11 02:56:37;;;;;;;3.35;1.88;;;;;;;0.88;62.86;101617.34;5046567;28;20132;-79
2023/04/11 02:59:04;;;;;;;3.88;2.53;;;;;;;0.88;62.49;101613.09;5034802;28;20053;-78
2023/04/11 03:01:31;;;;;;;2.63;2.42;;;;;;;0.87;62.52;101607.88;5038674;28;20049;-78
2023/04/11 03:03:58;;;;;;;5.22;1.70;;;;;;;0.87;62.71;101608.75;5046668;28;20052;-79
2023/04/11 03:06:25;;;;;;;5.18;1.58;;;;;;;0.85;62.15;101602.69;5046615;28;20045;-78
2023/04/11 03:08:54;;;;;;;3.00;1.90;;;;;;;0.85;62.31;101599.22;5043622;28;20057;-79
2023/04/11 03:11:21;;;;;;;3.40;1.45;;;;;;;0.82;62.28;101600.00;5040947;28;20045;-78
2023/04/11 03:13:48;;;;;;;2.88;1.73;;;;;;;0.76;62.20;101586.94;5046562;28;20064;-78
2023/04/11 03:16:15;;;;;;;2.08;1.60;;;;;;;0.81;63.04;101592.25;5052151;28;20055;-79
2023/04/11 03:18:42;;;;;;;2.05;1.27;;;;;;;0.80;62.58;101588.81;5050378;28;20051;-78
2023/04/11 03:21:10;;;;;;;3.40;2.00;;;;;;;0.80;62.42;101587.94;5049499;28;20486;-79
2023/04/11 03:23:37;;;;;;;4.63;1.67;;;;;;;0.79;62.50;101583.59;5043335;28;20095;-78
2023/04/11 03:26:06;;;;;;;3.25;1.75;;;;;;;0.78;62.72;101579.28;5036323;28;20051;-78
2023/04/11 03:28:33;;;;;;;5.60;1.88;;;;;;;0.78;62.87;101579.28;5040047;28;20608;-78
2023/04/11 03:31:00;;;;;;;4.43;1.60;;;;;;;0.76;62.69;101574.06;5042108;28;20045;-78
2023/04/11 03:33:27;;;;;;;3.08;1.77;;;;;;;0.75;62.78;101572.34;5040752;28;20049;-78
2023/04/11 03:35:54;;;;;;;2.83;1.70;;;;;;;0.74;63.14;101564.56;5041158;28;20052;-78
2023/04/11 03:38:21;;;;;;;4.25;2.25;;;;;;;0.73;62.86;101565.38;5041913;28;20060;-78
2023/04/11 03:40:48;;;;;;;3.08;2.10;;;;;;;0.73;63.07;101563.69;5043190;28;20481;-78
2023/04/11 03:43:16;;;;;;;2.70;1.65;;;;;;;0.70;63.15;101557.56;5039152;28;20055;-78
2023/04/11 03:45:43;;;;;;;1.70;1.58;;;;;;;0.70;62.89;101562.72;5039531;28;20095;-77
2023/04/11 03:48:10;;;;;;;3.63;2.20;;;;;;;0.69;63.34;101560.97;5044879;28;20053;-77
2023/04/11 03:50:38;;;;;;;2.35;1.98;;;;;;;0.69;63.17;101555.84;5047622;28;20075;-77
2023/04/11 03:53:05;;;;;;;2.85;1.58;;;;;;;0.66;63.32;101557.47;5046192;28;20482;-78
2023/04/11 03:55:32;;;;;;;4.20;1.60;;;;;;;0.64;63.20;101551.38;5047987;28;20045;-77
2023/04/11 03:57:59;;;;;;;4.85;2.15;;;;;;;0.64;63.20;101553.97;5044890;28;20521;-78
2023/04/11 04:00:27;;;;;;;2.63;1.95;;;;;;;0.63;62.63;101547.06;5047224;28;20378;-78
2023/04/11 04:02:54;;;;;;;2.70;1.58;;;;;;;0.63;62.94;101547.06;5044640;28;20045;-78
2023/04/11 04:05:21;;;;;;;2.92;1.80;;;;;;;0.63;63.69;101548.78;5046079;28;20516;-79
2023/04/11 04:07:48;;;;;;;5.05;1.65;;;;;;;0.54;63.19;101535.59;5052115;28;20059;-79
2023/04/11 04:10:15;;;;;;;5.60;2.35;;;;;;;0.62;63.63;101542.75;5047981;28;20060;-79
2023/04/11 04:12:42;;;;;;;5.10;2.50;;;;;;;0.61;63.67;101545.28;5045023;28;20099;-79
2023/04/11 04:15:10;;;;;;;1.92;1.58;;;;;;;0.60;63.49;101541.84;5041824;28;20057;-79
2023/04/11 04:17:38;;;;;;;3.03;2.00;;;;;;;0.59;63.78;101540.06;5047291;28;20520;-78
2023/04/11 04:20:07;;;;;;;3.42;1.40;;;;;;;0.59;63.14;101541.75;5051489;28;20045;-79
2023/04/11 04:22:34;;;;;;;3.90;1.77;;;;;;;0.59;63.63;101542.63;5046664;28;20620;-79
2023/04/11 04:25:02;;;;;;;2.30;1.55;;;;;;;0.59;63.40;101541.75;5042549;28;20041;-79
2023/04/11 04:27:29;;;;;;;2.28;1.63;;;;;;;0.59;63.47;101539.19;5040751;28;20508;-77
2023/04/11 04:29:56;;;;;;;3.15;1.85;;;;;;;0.59;63.59;101532.34;5052727;28;20056;-79
2023/04/11 04:32:27;;;;;;;4.25;1.35;;;;;;;0.61;63.48;101524.69;5044302;28;20051;-79
2023/04/11 04:34:56;;;;;;;2.60;1.55;;;;;;;0.62;63.64;101523.88;5048562;28;20049;-79
2023/04/11 04:37:25;;;;;;;6.07;1.92;;;;;;;0.61;64.12;101528.13;5049308;28;20128;-79
2023/04/11 04:39:54;;;;;;;3.17;2.38;;;;;;;0.61;63.89;101515.28;5046656;28;20048;-79
2023/04/11 04:42:25;;;;;;;3.35;1.80;;;;;;;0.64;63.85;101525.69;5044106;28;20053;-80
2023/04/11 04:44:53;;;;;;;3.70;2.13;;;;;;;0.66;64.15;101518.03;5042421;28;20046;-79
2023/04/11 04:47:23;;;;;;;4.47;1.92;;;;;;;0.63;64.17;101502.50;5049014;28;20055;-79
2023/04/11 04:49:56;;;;;;;4.22;1.50;;;;;;;0.69;63.98;101512.13;5046845;28;20057;-79
2023/04/11 04:52:24;;;;;;;3.35;1.60;;;;;;;0.70;64.36;101508.72;5046610;28;20126;-79
2023/04/11 04:54:51;;;;;;;4.03;2.03;;;;;;;0.70;63.59;101503.56;5042234;28;20402;-79
2023/04/11 04:57:18;;;;;;;3.85;1.92;;;;;;;0.72;63.73;101504.50;5046178;28;20405;-79
2023/04/11 04:59:45;;;;;;;3.10;1.88;;;;;;;0.75;63.76;101505.47;5051111;28;20049;-80
2023/04/11 05:02:12;;;;;;;5.05;2.28;;;;;;;0.78;64.18;101509.84;5042011;28;20056;-80
2023/04/11 05:04:39;;;;;;;6.93;2.60;;;;;;;0.81;64.51;101502.22;5045856;28;20129;-79
2023/04/11 05:07:07;;;;;;;3.30;1.67;;;;;;;0.79;64.88;101485.88;5047780;28;20045;-79
2023/04/11 05:09:34;;;;;;;4.18;1.80;;;;;;;0.82;64.23;101481.69;5050728;28;20051;-79
2023/04/11 05:12:01;;;;;;;1.88;1.70;;;;;;;0.89;64.13;101490.50;5044663;28;20048;-79
2023/04/11 05:14:28;;;;;;;6.68;2.03;;;;;;;0.88;64.70;101475.88;5045833;28;20051;-80
2023/04/11 05:16:55;;;;;;;3.85;2.72;;;;;;;0.96;64.24;101484.72;5047628;28;20041;-79
2023/04/11 05:19:22;;;;;;;3.80;2.38;;;;;;;1.01;64.88;101472.88;5051452;28;20051;-79
2023/04/11 05:21:49;;;;;;;5.00;2.30;;;;;;;1.06;64.32;101478.19;5045317;28;20056;-79
2023/04/11 05:24:17;;;;;;;6.15;2.20;;;;;;;1.10;64.56;101475.72;5038678;28;20517;-79
2023/04/11 05:26:44;;;;;;;6.28;2.30;;;;;;;1.15;64.56;101475.88;5041010;28;20042;-80
2023/04/11 05:29:11;;;;;;;6.55;2.17;;;;;;;1.20;64.79;101470.88;5040683;28;20048;-80
2023/04/11 05:31:38;;;;;;;3.45;2.75;;;;;;;1.25;65.29;101456.44;5051636;28;20055;-79
2023/04/11 05:34:05;;;;;;;4.70;2.90;;;;;;;1.30;65.46;101457.47;5040344;28;20053;-79
2023/04/11 05:36:32;;;;;;;5.20;2.55;;;;;;;1.34;64.97;101457.59;5043755;28;20482;-80
2023/04/11 05:38:59;;;;;;;5.20;2.85;;;;;;;1.40;65.34;101453.47;5044459;28;20053;-80
2023/04/11 05:41:28;;;;;;;9.85;2.95;;;;;;;1.44;65.45;101457.88;5040418;28;20045;-79
2023/04/11 05:43:54;;;;;;;4.20;2.42;;;;;;;1.46;65.38;101451.94;5044161;28;20042;-80
2023/04/11 05:46:21;;;;;;;8.65;2.10;;;;;;;1.54;65.87;101460.78;5040404;28;20059;-79
2023/04/11 05:48:48;;;;;;;4.95;2.45;;;;;;;1.60;65.79;101447.19;5044354;28;20049;-79
2023/04/11 05:51:15;;;;;;;8.40;2.63;;;;;;;1.66;65.78;101454.22;5045584;28;20041;-79
2023/04/11 05:53:42;;;;;;;5.60;3.25;;;;;;;1.72;66.40;101459.56;5034184;28;20049;-79
2023/04/11 05:56:11;;;;;;;5.05;2.80;;;;;;;1.77;66.30;101453.69;5034196;28;20577;-79
2023/04/11 05:58:42;;;;;;;4.63;2.58;;;;;;;1.86;65.79;101459.94;5049863;28;20044;-79
2023/04/11 06:01:13;;;;;;;4.85;3.08;;;;;;;1.91;66.06;101456.66;5044057;28;20482;-79
2023/04/11 06:03:40;;;;;;;9.10;3.88;;;;;;;1.97;67.12;101451.69;5053800;28;20049;-79
2023/04/11 06:06:07;;;;;;;9.13;3.90;;;;;;;2.04;67.61;101457.88;5046345;28;20041;-80
2023/04/11 06:08:34;;;;;;;7.72;3.40;;;;;;;2.09;67.42;101439.97;5033759;28;20045;-80
2023/04/11 06:11:01;;;;;;;8.93;4.30;;;;;;;2.17;67.00;101448.78;5042445;28;20394;-79
2023/04/11 06:13:28;;;;;;;4.72;3.55;;;;;;;2.23;66.96;101442.06;5037367;28;20091;-79
2023/04/11 06:15:56;;;;;;;5.47;2.97;;;;;;;2.30;67.29;101445.66;5044803;28;20060;-79
2023/04/11 06:18:23;;;;;;;6.25;4.22;;;;;;;2.37;67.21;101436.41;5053195;28;20413;-80
2023/04/11 06:20:50;;;;;;;10.25;3.65;;;;;;;2.40;67.98;101434.78;5054124;28;20045;-80
2023/04/11 06:23:17;;;;;;;4.40;3.10;;;;;;;2.51;67.50;101431.59;5042891;28;20041;-79
2023/04/11 06:25:44;;;;;;;5.13;3.88;;;;;;;2.56;68.63;101435.16;5037695;28;20049;-80
2023/04/11 06:28:11;;;;;;;6.35;3.10;;;;;;;2.60;68.14;101424.94;5050830;28;20464;-79
2023/04/11 06:30:37;;;;;;;7.80;2.97;;;;;;;2.68;68.21;101435.47;5034338;28;20051;-80
2023/04/11 06:33:06;;;;;;;5.30;2.60;;;;;;;2.75;68.12;101433.91;5037800;28;20051;-80
2023/04/11 06:35:33;;;;;;;3.90;1.98;;;;;;;2.81;68.78;101440.06;5051063;28;20049;-79
2023/04/11 06:37:59;;;;;;;4.32;2.10;;;;;;;2.84;68.02;101421.22;5053200;28;20045;-79
2023/04/11 06:40:26;;;;;;;4.20;1.50;;;;;;;2.94;68.28;101420.59;5049511;28;20056;-80
2023/04/11 06:42:54;;;;;;;6.10;2.40;;;;;;;3.01;67.61;101426.75;5047608;28;20045;-79
2023/04/11 06:45:21;;;;;;;4.05;1.90;;;;;;;3.07;67.84;101421.72;5041183;28;20045;-80
2023/04/11 06:47:49;;;;;;;5.70;2.83;;;;;;;3.13;68.11;101419.28;5041251;28;20041;-80
2023/04/11 06:50:18;;;;;;;2.70;1.63;;;;;;;3.23;67.61;101423.81;5044152;28;20048;-80
2023/04/11 06:52:45;;;;;;;2.58;1.50;;;;;;;3.33;67.64;101419.72;5042610;28;20049;-80
2023/04/11 06:55:14;;;;;;;4.25;1.33;;;;;;;3.46;67.70;101415.69;5043009;28;20060;-81
2023/04/11 06:57:41;;;;;;;2.70;1.98;;;;;;;3.58;67.38;101414.22;5038187;28;20073;-81
2023/04/11 07:00:11;;;;;;;2.42;1.08;;;;;;;3.74;67.79;101406.78;5038467;28;20054;-80
2023/04/11 07:02:39;;;;;;;1.98;1.42;;;;;;;3.88;67.21;101407.94;5052867;28;20092;-81
2023/04/11 07:05:09;;;;;;;3.03;1.45;;;;;;;4.01;67.43;101409.03;5046872;28;20052;-81
2023/04/11 07:07:37;;;;;;;3.17;1.25;;;;;;;4.14;67.22;101404.97;5044445;28;20132;-81
2023/04/11 07:10:05;;;;;;;1.90;1.17;;;;;;;4.28;67.24;101390.56;5037185;28;20045;-81
2023/04/11 07:12:32;;;;;;;4.95;1.95;;;;;;;4.44;66.61;101397.75;5034246;28;20056;-82
2023/04/11 07:14:58;;;;;;;2.70;1.70;;;;;;;4.60;66.43;101397.97;5035141;28;20483;-81
2023/04/11 07:17:25;;;;;;;8.75;1.00;;;;;;;4.72;66.24;101393.88;5041067;28;20045;-80
2023/04/11 07:19:52;;;;;;;2.58;0.98;;;;;;;4.86;66.38;101398.38;5053161;28;20053;-82
2023/04/11 07:22:19;;;;;;;1.95;0.95;;;;;;;4.99;65.91;101392.53;5043800;28;20053;-82
2023/04/11 07:24:51;;;;;;;2.72;1.10;;;;;;;5.11;65.84;101391.84;5035802;28;20045;-82
2023/04/11 07:27:18;;;;;;;3.15;0.57;;;;;;;5.22;65.82;101381.63;5042591;28;20045;-82
2023/04/11 07:29:45;;;;;;;2.28;1.17;;;;;;;5.40;65.61;101384.44;5046293;28;20128;-83
2023/04/11 07:32:12;;;;;;;2.72;0.90;;;;;;;5.55;65.43;101381.16;5051283;28;20059;-83
2023/04/11 07:34:39;;;;;;;2.20;0.75;;;;;;;5.71;65.11;101384.81;5045238;28;20049;-84
2023/04/11 07:37:06;;;;;;;1.40;1.13;;;;;;;5.89;64.91;101385.03;5051140;28;20056;-83
2023/04/11 07:39:33;;;;;;;2.08;0.60;;;;;;;6.06;63.68;101385.19;5048171;28;20057;-83
2023/04/11 07:42:02;;;;;;;4.32;0.75;;;;;;;6.11;63.69;101348.94;5053552;28;20045;-82
2023/04/11 07:44:29;;;;;;;2.22;1.10;;;;;;;6.43;62.94;101377.75;5046095;28;20171;-83
2023/04/11 07:46:56;;;;;;;1.73;0.70;;;;;;;6.58;62.87;101366.66;5047771;28;20498;-84
2023/04/11 07:49:22;;;;;;;5.50;0.60;;;;;;;6.76;61.96;101371.94;5043378;28;20509;-83
2023/04/11 07:51:49;;;;;;;1.85;0.70;;;;;;;6.91;61.84;101366.84;5054134;28;20045;-83
2023/04/11 07:54:16;;;;;;;3.25;1.00;;;;;;;7.07;60.85;101367.81;5036738;28;20049;-82
2023/04/11 07:56:43;;;;;;;5.18;0.70;;;;;;;7.25;60.83;101367.03;5036759;28;20049;-82
2023/04/11 07:59:14;;;;;;;2.47;0.95;;;;;;;7.43;60.31;101364.53;5036519;28;20052;-81
2023/04/11 08:01:41;;;;;;;1.27;0.60;;;;;;;7.60;60.14;101364.59;5036564;28;20136;-81
2023/04/11 08:04:08;;;;;;;3.55;0.75;;;;;;;7.78;59.53;101363.75;5037298;28;20050;-81
2023/04/11 08:06:35;;;;;;;2.42;0.60;;;;;;;7.95;59.26;101357.75;5042995;28;20506;-81
2023/04/11 08:09:04;;;;;;;1.05;0.55;;;;;;;8.09;58.07;101359.47;5050867;28;20053;-80
2023/04/11 08:11:31;;;;;;;2.42;0.68;;;;;;;8.23;58.52;101359.50;5043223;28;20176;-80
2023/04/11 08:13:58;;;;;;;2.10;0.68;;;;;;;8.30;57.62;101332.59;5048825;28;20051;-81
2023/04/11 08:16:26;;;;;;;2.35;0.60;;;;;;;8.52;57.46;101343.03;5042765;28;20120;-81
2023/04/11 08:18:53;;;;;;;2.72;0.70;;;;;;;8.64;57.39;101343.00;5040420;28;20053;-80
2023/04/11 08:21:22;;;;;;;7.18;0.77;;;;;;;8.77;57.47;101343.88;5044594;28;20051;-80
2023/04/11 08:23:49;;;;;;;1.35;0.50;;;;;;;8.89;57.07;101337.78;5039865;28;20089;-80
2023/04/11 08:26:17;;;;;;;3.25;0.70;;;;;;;8.89;56.67;101323.00;5053442;28;20516;-81
2023/04/11 08:28:44;;;;;;;2.33;0.70;;;;;;;9.09;56.04;101342.94;5043510;28;20085;-80
2023/04/11 08:31:11;;;;;;;1.17;0.50;;;;;;;9.16;56.41;101342.91;5045699;28;20053;-79
2023/04/11 08:33:39;;;;;;;1.52;0.50;;;;;;;9.23;55.71;101338.53;5050782;28;20049;-80
2023/04/11 08:36:08;;;;;;;1.40;0.60;;;;;;;9.29;55.61;101343.72;5035527;28;20405;-79
2023/04/11 08:38:35;;;;;;;1.70;0.60;;;;;;;9.35;55.12;101330.66;5035428;28;20548;-78
2023/04/11 08:41:02;;;;;;;2.95;0.68;;;;;;;9.39;55.20;101326.28;5040936;28;20061;-79
2023/04/11 08:43:29;;;;;;;5.05;0.50;;;;;;;9.44;54.94;101324.53;5044414;28;20049;-79
2023/04/11 08:45:56;;;;;;;4.45;0.60;;;;;;;9.48;54.32;101326.25;5046263;28;20045;-80
2023/04/11 08:48:24;;;;;;;2.10;0.80;;;;;;;9.52;54.29;101327.97;5038240;28;20057;-79
2023/04/11 08:50:52;;;;;;;1.52;0.43;;;;;;;9.48;53.75;101317.53;5038092;28;20137;-79
2023/04/11 08:53:21;;;;;;;3.75;0.65;;;;;;;9.53;53.05;101319.25;5042324;28;20074;-80
2023/04/11 08:55:48;;;;;;;3.60;0.50;;;;;;;9.55;53.13;101308.81;5035397;28;20504;-80
2023/04/11 08:58:15;;;;;;;8.77;0.82;;;;;;;9.53;52.30;101311.44;5049379;28;20047;-79
2023/04/11 09:00:42;;;;;;;2.05;0.77;;;;;;;9.52;52.41;101322.75;5045009;28;20045;-80
2023/04/11 09:03:11;;;;;;;2.60;0.50;;;;;;;9.50;51.66;101311.44;5045015;28;20041;-79
2023/04/11 09:05:39;;;;;;;1.00;0.55;;;;;;;9.53;51.79;101315.78;5042796;28;20048;-79
2023/04/11 09:08:09;;;;;;;4.85;0.60;;;;;;;9.53;51.47;101305.34;5048673;28;20051;-79
2023/04/11 09:10:37;;;;;;;1.65;0.50;;;;;;;9.53;51.48;101305.34;5049829;28;20049;-79
2023/04/11 09:13:19;;;;;;;2.15;0.88;;;;;;;9.54;51.15;101307.97;5045993;28;20395;-79
2023/04/11 09:15:46;;;;;;;2.55;0.70;;;;;;;9.55;50.75;101304.47;5040477;28;20098;-79
2023/04/11 09:18:31;;;;;;;5.63;0.73;;;;;;;9.59;51.00;101300.09;5042304;28;20052;-80
2023/04/11 09:21:00;;;;;;;4.20;0.60;;;;;;;9.52;50.27;101294.06;5049673;28;20480;-79
2023/04/11 09:23:28;;;;;;;4.95;0.52;;;;;;;9.61;50.47;101291.38;5046769;28;20052;-80
2023/04/11 09:25:55;;;;;;;6.13;0.70;;;;;;;9.64;50.56;101296.56;5043516;28;20555;-79
2023/04/11 09:28:22;;;;;;;1.00;0.60;;;;;;;9.69;50.12;101297.41;5050853;28;20045;-79
2023/04/11 09:30:51;;;;;;;3.90;0.50;;;;;;;9.71;49.62;101286.13;5042228;28;20049;-79
2023/04/11 09:33:21;;;;;;;3.55;0.50;;;;;;;9.74;49.45;101284.34;5042020;28;20042;-80
2023/04/11 09:35:49;;;;;;;1.08;0.80;;;;;;;9.78;49.14;101282.59;5042573;28;20422;-79
2023/04/11 09:38:30;;;;;;;1.67;0.50;;;;;;;9.82;49.01;101269.53;5047616;28;20048;-79
2023/04/11 09:40:57;;;;;;;1.88;0.65;;;;;;;9.88;48.61;101271.22;5034313;28;20053;-80
2023/04/11 09:43:24;;;;;;;0.70;0.40;;;;;;;9.92;48.40;101265.09;5034491;28;20045;-80
2023/04/11 09:46:09;;;;;;;2.45;0.50;;;;;;;9.96;48.25;101258.09;5034313;28;20659;-79
2023/04/11 09:48:37;;;;;;;1.35;0.40;;;;;;;10.00;48.00;101259.81;5033967;28;20529;-79
2023/04/11 09:51:05;;;;;;;2.30;0.82;;;;;;;10.03;47.75;101260.66;5040670;28;20053;-80
2023/04/11 09:53:36;;;;;;;1.05;0.50;;;;;;;10.01;47.87;101251.09;5049133;28;20044;-79
2023/04/11 09:56:03;;;;;;;2.92;0.30;;;;;;;10.07;47.39;101256.25;5049440;28;20045;-79
2023/04/11 09:58:32;;;;;;;4.78;0.50;;;;;;;10.08;47.23;101264.09;5042178;28;20045;-79
2023/04/11 10:01:00;;;;;;;2.25;0.40;;;;;;;10.09;47.15;101260.59;5040063;28;20421;-79
2023/04/11 10:03:29;;;;;;;2.05;0.40;;;;;;;10.13;46.86;101256.19;5034618;28;20048;-80
2023/04/11 10:05:56;;;;;;;3.25;0.57;;;;;;;10.14;46.83;101247.50;5049361;28;20047;-79
2023/04/11 10:08:32;;;;;;;2.72;0.82;;;;;;;10.16;46.22;101248.38;5047315;28;20049;-79
2023/04/11 10:11:01;;;;;;;4.90;1.23;;;;;;;10.10;46.32;101236.25;5048076;28;20056;-79
2023/04/11 10:13:41;;;;;;;0.95;0.45;;;;;;;10.18;46.59;101235.28;5045181;28;20045;-79
2023/04/11 10:16:13;;;;;;;3.20;0.57;;;;;;;10.23;46.85;101244.81;5044776;28;20406;-80
2023/04/11 10:19:26;;;;;;;4.10;0.40;;;;;;;10.27;46.88;101240.44;5050214;28;20049;-79
2023/04/11 10:21:52;;;;;;;2.58;1.75;;;;;;;10.28;46.63;101243.06;5040748;28;20047;-79
2023/04/11 10:24:20;;;;;;;3.08;0.80;;;;;;;10.30;46.80;101248.25;5046289;28;20040;-79
2023/04/11 10:26:51;;;;;;;2.30;0.82;;;;;;;10.31;46.59;101255.22;5033807;28;20045;-80
2023/04/11 10:29:51;;;;;;;2.42;0.40;;;;;;;10.33;47.05;101248.22;5036892;28;20047;-80
2023/04/11 10:32:22;;;;;;;2.05;0.52;;;;;;;10.33;46.53;101254.31;5045598;28;20475;-80
2023/04/11 10:35:28;;;;;;;1.88;0.70;;;;;;;10.32;47.12;101255.19;5047963;28;20045;-80
2023/04/11 10:37:55;;;;;;;2.08;0.65;;;;;;;10.33;46.60;101262.16;5040331;28;20049;-80
2023/04/11 10:40:24;;;;;;;1.63;0.40;;;;;;;10.30;46.76;101254.34;5042738;28;20049;-80
2023/04/11 10:42:52;;;;;;;1.98;0.68;;;;;;;10.35;46.73;101255.16;5049538;28;20516;-79
2023/04/11 10:45:23;;;;;;;2.47;0.80;;;;;;;10.35;46.74;101254.28;5037158;28;20055;-80
2023/04/11 10:48:10;;;;;;;1.40;0.60;;;;;;;10.35;46.41;101244.69;5037167;28;20502;-79
2023/04/11 10:50:44;;;;;;;1.40;0.70;;;;;;;10.34;46.54;101234.28;5042517;28;20046;-80
2023/04/11 10:53:36;;;;;;;2.78;0.70;;;;;;;10.32;46.31;101231.69;5048210;28;20052;-80
2023/04/11 10:56:03;;;;;;;1.05;0.40;;;;;;;10.32;46.27;101241.28;5033189;28;20056;-80
2023/04/11 10:58:39;;;;;;;1.55;0.60;;;;;;;10.31;46.40;101239.53;5046820;28;20055;-80
2023/04/11 11:01:17;;;;;;;1.58;0.50;;;;;;;10.32;46.58;101236.03;5032889;28;20045;-80
2023/04/11 11:03:56;;;;;;;3.20;0.68;;;;;;;10.32;46.35;101236.91;5038967;28;20049;-81
2023/04/11 11:06:24;;;;;;;2.40;0.85;;;;;;;10.34;46.36;101234.28;5052844;28;20087;-80
2023/04/11 11:08:51;;;;;;;1.30;0.60;;;;;;;10.35;46.46;101226.44;5037848;28;20567;-82
2023/04/11 11:11:19;;;;;;;1.50;0.70;;;;;;;10.36;46.67;101232.53;5048471;28;20049;-80
2023/04/11 11:13:49;;;;;;;4.30;1.23;;;;;;;10.37;46.58;101218.59;5039561;28;20056;-80
2023/04/11 11:16:18;;;;;;;3.03;0.90;;;;;;;10.37;46.73;101222.94;5047808;28;20091;-80
2023/04/11 11:18:46;;;;;;;2.92;0.60;;;;;;;10.38;46.44;101222.06;5038022;28;20045;-80
2023/04/11 11:21:15;;;;;;;2.35;0.68;;;;;;;10.39;46.80;101218.56;5032829;28;20092;-80
2023/04/11 11:23:56;;;;;;;0.95;0.60;;;;;;;10.30;47.22;101199.53;5032956;28;20050;-81
2023/04/11 11:26:35;;;;;;;2.60;0.60;;;;;;;10.39;47.14;101211.63;5033324;28;20414;-80
2023/04/11 11:29:03;;;;;;;3.15;0.77;;;;;;;10.38;47.75;101207.25;5032756;28;20049;-81
2023/04/11 11:31:40;;;;;;;3.63;1.00;;;;;;;10.39;47.60;101211.63;5035849;28;20128;-80
2023/04/11 11:34:07;;;;;;;4.07;0.80;;;;;;;10.42;48.25;101210.72;5039159;28;20069;-82
2023/04/11 11:36:36;;;;;;;2.08;0.98;;;;;;;10.30;48.19;101196.91;5045347;28;20049;-80
2023/04/11 11:39:04;;;;;;;1.52;0.50;;;;;;;10.41;48.41;101204.59;5040542;28;20486;-80